Time;durP1;ratioP1;P1;durP2;ratioP2;P2;SDS_P1;SDS_P2;PMS_P1;PMS_P2;Temp;Humidity;BMP_temperature;BMP_pressure;BME280_temperature;BME280_humidity;BME280_pressure;Samples;Min_cycle;Max_cycle;Signal;HPM_P1;HPM_P2
2022/12/02 00:00:37;;;;;;;;;;;;;;;8.99;63.03;99209.41;5066770;28;20443;-74
2022/12/02 00:03:02;;;;;;;;;;;;;;;8.99;62.89;99208.59;5049513;28;20016;-74
2022/12/02 00:05:31;;;;;;;;;;;;;;;9.00;62.85;99212.88;5032638;28;19917;-73
2022/12/02 00:08:00;;;;;;;;;;;;;;;8.99;62.85;99217.22;5049477;28;19925;-73
2022/12/02 00:10:26;;;;;;;;;;;;;;;9.00;62.67;99215.47;5066188;28;19917;-73
2022/12/02 00:12:52;;;;;;;;;;;;;;;8.99;62.74;99212.00;5049373;28;19918;-73
2022/12/02 00:15:26;;;;;;;;;;;;;;;9.00;62.88;99224.13;5066539;28;20055;-73
2022/12/02 00:17:51;;;;;;;;;;;;;;;8.99;62.77;99222.44;5034409;28;19982;-72
2022/12/02 00:20:17;;;;;;;;;;;;;;;9.00;62.90;99220.69;5046957;28;20382;-73
2022/12/02 00:22:42;;;;;;;;;;;;;;;8.99;62.76;99222.44;5019108;28;19927;-73
2022/12/02 00:25:07;;;;;;;;;;;;;;;8.99;62.85;99219.81;5035794;28;19920;-73
2022/12/02 00:27:33;;;;;;;;;;;;;;;8.99;62.77;99219.81;5036145;28;19917;-73
2022/12/02 00:29:58;;;;;;;;;;;;;;;9.00;62.70;99215.47;5053213;28;19925;-73
2022/12/02 00:32:23;;;;;;;;;;;;;;;9.00;62.83;99223.28;5053638;28;19921;-73
2022/12/02 00:34:48;;;;;;;;;;;;;;;8.99;62.77;99217.22;5035587;28;19924;-73
2022/12/02 00:37:14;;;;;;;;;;;;;;;9.00;62.78;99218.91;5069041;28;20028;-73
2022/12/02 00:39:39;;;;;;;;;;;;;;;9.00;62.64;99221.50;5068629;28;20429;-73
2022/12/02 00:42:04;;;;;;;;;;;;;;;9.00;62.90;99224.13;5068967;28;19924;-73
2022/12/02 00:47:13;;;;;;;;;;;;;;;9.02;62.72;99224.84;5053237;28;19966;-73
2022/12/02 00:49:39;;;;;;;;;;;;;;;9.01;62.64;99220.59;5053253;28;19960;-73
2022/12/02 00:52:04;;;;;;;;;;;;;;;9.00;62.60;99211.09;5068319;28;20011;-72
2022/12/02 00:54:29;;;;;;;;;;;;;;;9.01;62.72;99211.91;5053304;28;19920;-73
2022/12/02 00:56:55;;;;;;;;;;;;;;;9.02;62.79;99218.81;5051846;28;20371;-73
2022/12/02 00:59:20;;;;;;;;;;;;;;;9.01;62.52;99223.19;5068975;28;19932;-73
2022/12/02 01:01:45;;;;;;;;;;;;;;;9.00;62.88;99213.69;5053235;28;19917;-73
2022/12/02 01:04:11;;;;;;;;;;;;;;;9.00;62.77;99215.47;5052806;28;19928;-73
2022/12/02 01:06:36;;;;;;;;;;;;;;;8.99;62.78;99211.19;5068625;28;19923;-73
2022/12/02 01:09:01;;;;;;;;;;;;;;;8.99;62.64;99209.41;5053078;28;19923;-73
2022/12/02 01:11:27;;;;;;;;;;;;;;;8.99;62.58;99208.59;5052926;28;19939;-73
2022/12/02 01:13:52;;;;;;;;;;;;;;;8.98;62.81;99206.91;5034836;28;19917;-73
2022/12/02 01:16:17;;;;;;;;;;;;;;;8.99;62.68;99204.19;5052835;28;20362;-74
2022/12/02 01:18:43;;;;;;;;;;;;;;;8.99;62.88;99208.59;5052598;28;20389;-74
2022/12/02 01:21:08;;;;;;;;;;;;;;;8.98;62.63;99202.56;5052692;28;19917;-74
2022/12/02 01:23:33;;;;;;;;;;;;;;;8.98;62.79;99205.16;5052686;28;19928;-74
2022/12/02 01:25:58;;;;;;;;;;;;;;;8.98;62.68;99204.28;5052658;28;19917;-74
2022/12/02 01:28:24;;;;;;;;;;;;;;;9.00;62.67;99203.28;5051400;28;20363;-74
2022/12/02 01:30:49;;;;;;;;;;;;;;;8.99;62.85;99206.81;5034269;28;19917;-75
2022/12/02 01:33:14;;;;;;;;;;;;;;;8.99;62.79;99201.59;5017538;28;19967;-74
2022/12/02 01:35:40;;;;;;;;;;;;;;;8.99;62.80;99200.78;5017468;28;19920;-74
2022/12/02 01:38:05;;;;;;;;;;;;;;;8.98;62.83;99199.94;5034951;28;19924;-73
2022/12/02 01:40:30;;;;;;;;;;;;;;;8.97;62.91;99200.88;5052141;28;19924;-73
2022/12/02 01:42:55;;;;;;;;;;;;;;;8.98;62.75;99199.09;5034581;28;20341;-73
2022/12/02 01:45:21;;;;;;;;;;;;;;;8.96;62.67;99199.19;5052066;28;20011;-75
2022/12/02 01:47:46;;;;;;;;;;;;;;;8.97;62.69;99200.03;5017755;28;19923;-75
2022/12/02 01:50:12;;;;;;;;;;;;;;;8.98;62.75;99196.47;5034285;28;20020;-73
2022/12/02 01:52:37;;;;;;;;;;;;;;;8.97;62.87;99192.22;5052735;28;19917;-73
2022/12/02 01:55:02;;;;;;;;;;;;;;;8.97;62.77;99194.84;5018132;28;19920;-73
2022/12/02 01:57:28;;;;;;;;;;;;;;;8.96;62.90;99191.38;5052297;28;19971;-73
2022/12/02 01:59:54;;;;;;;;;;;;;;;8.97;62.77;99192.22;5034603;28;19978;-73
2022/12/02 02:02:38;;;;;;;;;;;;;;;8.96;62.83;99193.16;5034563;28;20303;-74
2022/12/02 02:05:07;;;;;;;;;;;;;;;8.97;62.71;99192.22;5034728;28;20015;-74
2022/12/02 02:07:32;;;;;;;;;;;;;;;8.94;62.72;99187.22;5034545;28;19924;-74
2022/12/02 02:09:57;;;;;;;;;;;;;;;8.94;62.89;99187.22;5017490;28;19917;-73
2022/12/02 02:12:23;;;;;;;;;;;;;;;8.95;62.90;99191.47;5034982;28;19952;-73
2022/12/02 02:14:48;;;;;;;;;;;;;;;8.97;62.81;99187.84;5034441;28;19966;-74
2022/12/02 02:17:13;;;;;;;;;;;;;;;8.97;62.67;99185.25;5017616;28;19927;-74
2022/12/02 02:19:39;;;;;;;;;;;;;;;8.98;62.80;99188.69;5034460;28;20315;-74
2022/12/02 02:22:06;;;;;;;;;;;;;;;8.96;62.87;99188.78;5051947;28;19967;-74
2022/12/02 02:24:31;;;;;;;;;;;;;;;8.98;62.66;99188.69;5018000;28;20420;-74
2022/12/02 02:26:56;;;;;;;;;;;;;;;8.96;62.98;99183.56;5052509;28;19917;-75
2022/12/02 02:29:22;;;;;;;;;;;;;;;8.97;62.84;99184.41;5034306;28;19924;-74
2022/12/02 02:31:47;;;;;;;;;;;;;;;8.96;62.83;99180.97;5033745;28;19925;-74
2022/12/02 02:34:12;;;;;;;;;;;;;;;8.98;62.82;99196.47;5052080;28;20481;-73
2022/12/02 02:36:38;;;;;;;;;;;;;;;8.97;62.81;99195.66;5051941;28;19947;-74
2022/12/02 02:39:03;;;;;;;;;;;;;;;8.97;62.87;99187.03;5034148;28;19955;-74
2022/12/02 02:41:28;;;;;;;;;;;;;;;8.98;62.59;99186.94;5017521;28;19923;-75
2022/12/02 02:43:53;;;;;;;;;;;;;;;8.98;62.68;99194.75;5051841;28;20316;-74
2022/12/02 02:46:19;;;;;;;;;;;;;;;8.98;62.85;99186.06;5034099;28;20007;-74
2022/12/02 02:48:44;;;;;;;;;;;;;;;8.98;62.78;99193.88;5018089;28;19921;-74
2022/12/02 02:51:09;;;;;;;;;;;;;;;8.98;62.79;99196.47;5051699;28;20394;-74
2022/12/02 02:53:35;;;;;;;;;;;;;;;8.98;62.63;99193.88;5019795;28;19917;-73
2022/12/02 02:56:00;;;;;;;;;;;;;;;8.98;62.74;99192.13;5037715;28;19956;-73
2022/12/02 02:58:25;;;;;;;;;;;;;;;8.98;62.85;99192.13;5055788;28;20386;-75
2022/12/02 03:00:52;;;;;;;;;;;;;;;9.00;62.61;99194.66;5037597;28;19994;-74
2022/12/02 03:03:18;;;;;;;;;;;;;;;9.00;62.66;99190.25;5037449;28;19924;-74
2022/12/02 03:05:43;;;;;;;;;;;;;;;9.01;62.59;99196.28;5037350;28;19916;-74
2022/12/02 03:08:09;;;;;;;;;;;;;;;9.00;62.60;99194.66;5037650;28;20403;-74
2022/12/02 03:10:34;;;;;;;;;;;;;;;8.99;62.96;99193.78;5055148;28;19924;-74
2022/12/02 03:12:59;;;;;;;;;;;;;;;8.99;62.76;99193.78;5055542;28;19917;-74
2022/12/02 03:15:24;;;;;;;;;;;;;;;8.99;62.62;99199.00;5037100;28;19921;-74
2022/12/02 03:17:50;;;;;;;;;;;;;;;8.99;62.67;99208.59;5037118;28;19921;-74
2022/12/02 03:20:15;;;;;;;;;;;;;;;8.99;62.67;99203.38;5037026;28;19920;-74
2022/12/02 03:22:40;;;;;;;;;;;;;;;8.99;62.59;99199.00;5054922;28;19927;-74
2022/12/02 03:25:06;;;;;;;;;;;;;;;9.00;62.60;99202.47;5054953;28;19974;-74
2022/12/02 03:27:31;;;;;;;;;;;;;;;9.01;62.74;99206.72;5054770;28;19917;-74
2022/12/02 03:29:57;;;;;;;;;;;;;;;9.00;62.60;99199.84;5020406;28;19917;-73
2022/12/02 03:32:22;;;;;;;;;;;;;;;8.99;62.59;99203.38;5037456;28;19921;-74
2022/12/02 03:34:47;;;;;;;;;;;;;;;8.99;62.86;99200.78;5037017;28;19924;-74
2022/12/02 03:37:12;;;;;;;;;;;;;;;9.00;62.57;99199.84;5037271;28;19921;-74
2022/12/02 03:39:38;;;;;;;;;;;;;;;9.00;62.75;99199.84;5036910;28;19924;-74
2022/12/02 03:42:03;;;;;;;;;;;;;;;8.98;62.76;99193.88;5036890;28;20012;-74
2022/12/02 03:44:28;;;;;;;;;;;;;;;8.98;62.77;99193.88;5036657;28;19924;-75
2022/12/02 03:46:54;;;;;;;;;;;;;;;8.99;62.73;99195.56;5019551;28;19931;-74
2022/12/02 03:49:19;;;;;;;;;;;;;;;8.97;62.62;99193.06;5036742;28;20291;-74
2022/12/02 03:51:45;;;;;;;;;;;;;;;8.98;62.81;99196.47;5036587;28;19975;-74
2022/12/02 03:54:10;;;;;;;;;;;;;;;8.96;62.72;99193.97;5036712;28;19920;-75
2022/12/02 03:56:37;;;;;;;;;;;;;;;8.97;62.69;99202.66;5036556;28;19979;-74
2022/12/02 03:59:02;;;;;;;;;;;;;;;8.97;62.48;99205.25;5019857;28;19917;-75
2022/12/02 04:01:27;;;;;;;;;;;;;;;8.96;62.43;99208.78;5036289;28;19991;-75
2022/12/02 04:03:53;;;;;;;;;;;;;;;8.96;62.49;99209.59;5053818;28;19917;-75
2022/12/02 04:06:18;;;;;;;;;;;;;;;8.97;62.64;99205.25;5036285;28;19917;-74
2022/12/02 04:08:43;;;;;;;;;;;;;;;8.97;62.68;99215.66;5019484;28;19921;-74
2022/12/02 04:11:08;;;;;;;;;;;;;;;8.95;62.58;99217.50;5054017;28;20441;-74
2022/12/02 04:13:34;;;;;;;;;;;;;;;8.94;62.55;99218.47;5036302;28;19921;-74
2022/12/02 04:15:59;;;;;;;;;;;;;;;8.93;62.50;99220.19;5035638;28;19917;-74
2022/12/02 04:18:24;;;;;;;;;;;;;;;8.93;62.74;99216.78;5053965;28;19968;-74
2022/12/02 04:20:50;;;;;;;;;;;;;;;8.93;62.75;99219.38;5054402;28;19921;-73
2022/12/02 04:23:15;;;;;;;;;;;;;;;8.92;62.67;99222.91;5035767;28;20434;-76
2022/12/02 04:25:40;;;;;;;;;;;;;;;8.92;62.65;99223.75;5035913;28;19956;-75
2022/12/02 04:28:06;;;;;;;;;;;;;;;8.92;62.41;99226.38;5053955;28;20003;-75
2022/12/02 04:30:31;;;;;;;;;;;;;;;8.92;62.73;99222.91;5019041;28;19917;-74
2022/12/02 04:32:56;;;;;;;;;;;;;;;8.91;62.65;99226.44;5035736;28;20387;-74
2022/12/02 04:35:23;;;;;;;;;;;;;;;8.91;62.48;99231.66;5018995;28;19928;-77
2022/12/02 04:37:50;;;;;;;;;;;;;;;8.92;63.83;99234.19;5053573;28;19921;-77
2022/12/02 04:40:16;;;;;;;;;;;;;;;9.05;66.91;99242.06;5035945;28;20015;-73
2022/12/02 04:42:41;;;;;;;;;;;;;;;9.04;65.37;99243.84;5035671;28;19951;-77
2022/12/02 04:45:07;;;;;;;;;;;;;;;9.18;71.03;99250.78;5035523;28;20391;-79
2022/12/02 04:47:35;;;;;;;;;;;;;;;9.24;69.46;99246.97;5035484;28;20419;-74
2022/12/02 04:50:01;;;;;;;;;;;;;;;9.32;70.01;99252.53;5039676;28;19917;-75
2022/12/02 04:52:26;;;;;;;;;;;;;;;9.54;73.46;99254.59;5020770;28;19923;-76
2022/12/02 04:54:51;;;;;;;;;;;;;;;9.67;72.75;99259.03;5035255;28;19921;-75
2022/12/02 04:57:18;;;;;;;;;;;;;;;9.67;71.45;99261.66;5018707;28;19924;-78
2022/12/02 04:59:43;;;;;;;;;;;;;;;9.62;70.27;99264.53;5052557;28;19925;-78
2022/12/02 05:02:09;;;;;;;;;;;;;;;9.66;71.71;99266.03;5035251;28;20296;-78
2022/12/02 05:04:34;;;;;;;;;;;;;;;9.64;70.52;99267.88;5035188;28;19971;-78
2022/12/02 05:06:59;;;;;;;;;;;;;;;9.59;69.56;99269.94;5053128;28;19963;-78
2022/12/02 05:09:25;;;;;;;;;;;;;;;9.55;69.37;99277.13;5052954;28;19924;-77
2022/12/02 05:11:50;;;;;;;;;;;;;;;9.53;68.96;99278.97;5034857;28;19917;-78
2022/12/02 05:14:15;;;;;;;;;;;;;;;9.83;74.79;99279.75;5018909;28;19917;-78
2022/12/02 05:16:41;;;;;;;;;;;;;;;10.06;73.76;99286.09;5051853;28;19924;-73
2022/12/02 05:19:06;;;;;;;;;;;;;;;9.99;70.31;99287.41;5035514;28;19936;-77
2022/12/02 05:21:31;;;;;;;;;;;;;;;9.93;69.13;99294.69;5018617;28;19921;-78
2022/12/02 05:23:57;;;;;;;;;;;;;;;9.83;68.57;99293.59;5018555;28;20295;-80
2022/12/02 05:26:22;;;;;;;;;;;;;;;9.76;68.20;99297.56;5052713;28;20003;-78
2022/12/02 05:28:47;;;;;;;;;;;;;;;9.71;67.98;99297.84;5035061;28;19917;-78
2022/12/02 05:31:12;;;;;;;;;;;;;;;9.65;67.67;99295.63;5035013;28;19927;-76
2022/12/02 05:33:38;;;;;;;;;;;;;;;9.61;67.42;99296.75;5052782;28;20284;-73
2022/12/02 05:36:03;;;;;;;;;;;;;;;9.53;67.32;99302.44;5019038;28;20035;-77
2022/12/02 05:38:29;;;;;;;;;;;;;;;9.48;67.43;99299.28;5034479;28;20292;-79
2022/12/02 05:40:54;;;;;;;;;;;;;;;9.45;67.15;99307.31;5034818;28;19925;-79
2022/12/02 05:43:20;;;;;;;;;;;;;;;9.42;67.13;99297.06;5018200;28;19917;-75
2022/12/02 05:45:46;;;;;;;;;;;;;;;9.40;66.93;99314.56;5018296;28;19974;-76
2022/12/02 05:48:12;;;;;;;;;;;;;;;9.35;66.78;99307.03;5034875;28;19917;-77
2022/12/02 05:50:37;;;;;;;;;;;;;;;9.35;66.58;99312.25;5052552;28;19980;-77
2022/12/02 05:53:03;;;;;;;;;;;;;;;9.32;66.91;99315.06;5052555;28;19916;-74
2022/12/02 05:55:28;;;;;;;;;;;;;;;9.30;66.72;99319.53;5033343;28;19917;-76
2022/12/02 05:57:53;;;;;;;;;;;;;;;9.28;66.42;99317.94;5032983;28;19958;-76
2022/12/02 06:00:19;;;;;;;;;;;;;;;9.22;65.97;99317.38;5018203;28;19928;-76
2022/12/02 06:02:49;;;;;;;;;;;;;;;9.19;66.11;99320.19;5035011;28;19925;-77
2022/12/02 06:05:28;;;;;;;;;;;;;;;9.17;65.95;99327.25;5052415;28;19921;-75
2022/12/02 06:07:57;;;;;;;;;;;;;;;9.17;65.83;99329.00;5018482;28;20015;-76
2022/12/02 06:10:30;;;;;;;;;;;;;;;9.16;65.78;99336.00;5052347;28;19917;-75
2022/12/02 06:12:56;;;;;;;;;;;;;;;9.16;65.75;99337.78;5052424;28;19939;-76
2022/12/02 06:15:22;;;;;;;;;;;;;;;9.14;65.71;99337.88;5035039;28;19917;-75
2022/12/02 06:17:47;;;;;;;;;;;;;;;9.13;65.69;99346.59;5034473;28;20037;-76
2022/12/02 06:20:14;;;;;;;;;;;;;;;9.12;65.74;99338.88;5052284;28;20339;-75
2022/12/02 06:22:39;;;;;;;;;;;;;;;9.14;65.62;99337.00;5034608;28;19971;-76
2022/12/02 06:25:07;;;;;;;;;;;;;;;9.15;65.54;99341.28;5034148;28;19917;-76
2022/12/02 06:27:32;;;;;;;;;;;;;;;9.15;65.47;99347.34;5035884;28;19916;-75
2022/12/02 06:29:58;;;;;;;;;;;;;;;9.16;65.52;99349.03;5038373;28;20281;-75
2022/12/02 06:32:25;;;;;;;;;;;;;;;9.16;65.44;99351.63;5038266;28;19975;-74
2022/12/02 06:34:51;;;;;;;;;;;;;;;9.17;65.43;99352.44;5038245;28;19917;-76
2022/12/02 06:37:21;;;;;;;;;;;;;;;9.17;65.14;99350.72;5056095;28;20398;-75
2022/12/02 06:39:47;;;;;;;;;;;;;;;9.18;65.07;99360.19;5038778;28;19917;-76
2022/12/02 06:42:18;;;;;;;;;;;;;;;9.18;65.03;99359.34;5021575;28;19917;-76
2022/12/02 06:47:36;;;;;;;;;;;;;;;9.20;64.83;99352.28;5040873;28;19980;-75
2022/12/02 06:50:04;;;;;;;;;;;;;;;9.21;64.75;99356.56;5055805;28;19917;-76
2022/12/02 06:52:33;;;;;;;;;;;;;;;9.23;64.67;99344.25;5055554;28;20303;-75
2022/12/02 06:54:58;;;;;;;;;;;;;;;9.24;64.38;99348.56;5055743;28;19917;-74
2022/12/02 06:57:24;;;;;;;;;;;;;;;9.27;64.40;99352.75;5037934;28;19932;-76
2022/12/02 06:59:49;;;;;;;;;;;;;;;9.28;64.36;99350.03;5056182;28;19921;-76
2022/12/02 07:02:19;;;;;;;;;;;;;;;9.30;64.28;99350.78;5038084;28;20342;-76
2022/12/02 07:04:48;;;;;;;;;;;;;;;9.34;63.75;99346.22;5038321;28;19917;-76
2022/12/02 07:07:16;;;;;;;;;;;;;;;9.36;63.86;99347.81;5037833;28;19967;-75
2022/12/02 07:09:42;;;;;;;;;;;;;;;9.37;64.01;99346.88;5038089;28;19928;-75
2022/12/02 07:12:11;;;;;;;;;;;;;;;9.40;63.54;99353.66;5037703;28;19955;-76
2022/12/02 07:14:49;;;;;;;;;;;;;;;9.41;63.39;99355.34;5037652;28;19999;-75
2022/12/02 07:17:30;;;;;;;;;;;;;;;9.42;63.37;99354.41;5054977;28;19917;-75
2022/12/02 07:19:55;;;;;;;;;;;;;;;9.44;63.24;99357.75;5055118;28;20029;-75
2022/12/02 07:22:22;;;;;;;;;;;;;;;9.46;63.14;99358.50;5055052;28;20391;-75
2022/12/02 07:25:10;;;;;;;;;;;;;;;9.48;63.09;99359.22;5037465;28;19913;-76
2022/12/02 07:27:39;;;;;;;;;;;;;;;9.50;63.09;99356.53;5031347;28;20020;-75
2022/12/02 07:30:31;;;;;;;;;;;;;;;9.49;62.92;99363.53;5037213;28;19917;-76
2022/12/02 07:32:56;;;;;;;;;;;;;;;9.51;62.94;99366.88;5035008;28;19917;-76
2022/12/02 07:35:22;;;;;;;;;;;;;;;9.52;62.66;99362.47;5054988;28;19939;-76
2022/12/02 07:37:47;;;;;;;;;;;;;;;9.54;62.66;99368.47;5054957;28;19917;-75
2022/12/02 07:40:12;;;;;;;;;;;;;;;9.55;62.84;99370.09;5036037;28;19917;-76
2022/12/02 07:42:38;;;;;;;;;;;;;;;9.55;62.52;99364.91;5054900;28;19917;-76
2022/12/02 07:45:03;;;;;;;;;;;;;;;9.56;62.55;99372.63;5055129;28;19921;-76
2022/12/02 07:47:30;;;;;;;;;;;;;;;9.57;62.61;99371.69;5020364;28;20439;-75
2022/12/02 07:49:56;;;;;;;;;;;;;;;9.62;62.69;99373.19;5054677;28;19971;-77
2022/12/02 07:52:21;;;;;;;;;;;;;;;9.64;62.26;99379.97;5054676;28;19998;-75
2022/12/02 07:54:46;;;;;;;;;;;;;;;9.65;62.46;99376.44;5020128;28;20013;-76
2022/12/02 07:57:12;;;;;;;;;;;;;;;9.68;62.18;99388.47;5036910;28;20062;-77
2022/12/02 07:59:37;;;;;;;;;;;;;;;9.70;62.17;99384.81;5019813;28;19921;-73
2022/12/02 08:02:02;;;;;;;;;;;;;;;9.73;61.88;99389.00;5036560;28;19917;-74
2022/12/02 08:04:28;;;;;;;;;;;;;;;9.76;62.02;99388.81;5054935;28;19917;-76
2022/12/02 08:06:53;;;;;;;;;;;;;;;9.78;61.61;99390.38;5036209;28;20350;-76
2022/12/02 08:09:18;;;;;;;;;;;;;;;9.82;61.55;99395.41;5036674;28;19917;-75
2022/12/02 08:11:43;;;;;;;;;;;;;;;9.82;61.72;99398.00;5054493;28;19920;-77
2022/12/02 08:14:09;;;;;;;;;;;;;;;9.84;61.56;99399.59;5036635;28;20331;-78
2022/12/02 08:16:34;;;;;;;;;;;;;;;9.86;61.43;99404.72;5054506;28;19921;-76
2022/12/02 08:19:00;;;;;;;;;;;;;;;9.84;61.36;99403.97;5054428;28;19928;-77
2022/12/02 08:21:26;;;;;;;;;;;;;;;9.82;61.44;99404.06;5054126;28;19917;-77
2022/12/02 08:23:51;;;;;;;;;;;;;;;9.83;61.60;99399.69;5036399;28;19948;-77
2022/12/02 08:26:16;;;;;;;;;;;;;;;9.83;61.45;99400.50;5036171;28;19971;-77
2022/12/02 08:28:42;;;;;;;;;;;;;;;9.84;61.64;99396.16;5036151;28;19912;-76
2022/12/02 08:31:07;;;;;;;;;;;;;;;9.85;61.30;99398.66;5019747;28;19960;-76
2022/12/02 08:33:32;;;;;;;;;;;;;;;9.87;61.43;99401.19;5036431;28;19916;-75
2022/12/02 08:35:58;;;;;;;;;;;;;;;9.87;61.60;99393.38;5053853;28;19924;-76
2022/12/02 08:38:23;;;;;;;;;;;;;;;9.89;61.47;99397.53;5035975;28;19917;-77
2022/12/02 08:40:48;;;;;;;;;;;;;;;9.93;61.35;99396.41;5053996;28;19917;-75
2022/12/02 08:43:13;;;;;;;;;;;;;;;9.94;61.30;99403.28;5035860;28;19944;-75
2022/12/02 08:45:39;;;;;;;;;;;;;;;10.00;61.26;99406.47;5035943;28;20399;-77
2022/12/02 08:48:04;;;;;;;;;;;;;;;10.05;61.33;99404.38;5053799;28;20425;-76
2022/12/02 08:50:29;;;;;;;;;;;;;;;10.09;61.17;99404.09;5034850;28;19975;-77
2022/12/02 08:52:55;;;;;;;;;;;;;;;10.14;61.04;99403.81;5035538;28;19921;-77
2022/12/02 08:55:20;;;;;;;;;;;;;;;10.17;60.90;99406.22;5053562;28;19923;-75
2022/12/02 08:57:45;;;;;;;;;;;;;;;10.19;60.97;99408.75;5035515;28;20364;-76
2022/12/02 09:00:11;;;;;;;;;;;;;;;10.23;60.94;99418.03;5035681;28;20412;-78
2022/12/02 09:02:36;;;;;;;;;;;;;;;10.26;60.95;99412.59;5035595;28;19916;-75
2022/12/02 09:05:02;;;;;;;;;;;;;;;10.26;60.91;99417.81;5035150;28;20368;-74
2022/12/02 09:07:27;;;;;;;;;;;;;;;10.29;60.85;99415.88;5035454;28;19917;-75
2022/12/02 09:09:52;;;;;;;;;;;;;;;10.32;60.84;99404.38;5035697;28;19989;-75
2022/12/02 09:12:18;;;;;;;;;;;;;;;10.36;60.65;99397.22;5035258;28;20066;-75
2022/12/02 09:14:43;;;;;;;;;;;;;;;10.41;60.18;99397.78;5018706;28;20406;-75
2022/12/02 09:17:08;;;;;;;;;;;;;;;10.46;60.39;99395.69;5035716;28;19917;-75
2022/12/02 09:19:34;;;;;;;;;;;;;;;10.49;60.23;99401.56;5018597;28;19932;-77
2022/12/02 09:21:59;;;;;;;;;;;;;;;10.52;60.14;99394.47;5034879;28;20437;-75
2022/12/02 09:24:24;;;;;;;;;;;;;;;10.57;59.84;99401.06;5053740;28;19924;-76
2022/12/02 09:26:50;;;;;;;;;;;;;;;10.65;59.61;99392.72;5053374;28;19916;-76
2022/12/02 09:29:15;;;;;;;;;;;;;;;10.67;59.35;99398.66;5052907;28;20418;-76
2022/12/02 09:31:40;;;;;;;;;;;;;;;10.71;59.27;99399.31;5034978;28;19947;-76
2022/12/02 09:34:06;;;;;;;;;;;;;;;10.73;59.36;99403.47;5035006;28;19917;-75
2022/12/02 09:36:31;;;;;;;;;;;;;;;10.75;59.26;99404.22;5035194;28;19971;-78
2022/12/02 09:38:56;;;;;;;;;;;;;;;10.75;59.44;99406.00;5035085;28;20016;-74
2022/12/02 09:41:21;;;;;;;;;;;;;;;10.75;59.19;99406.81;5018403;28;20327;-76
2022/12/02 09:43:47;;;;;;;;;;;;;;;10.74;59.02;99404.34;5052724;28;19995;-74
2022/12/02 09:46:12;;;;;;;;;;;;;;;10.72;58.95;99400.97;5052872;28;19916;-76
2022/12/02 09:48:37;;;;;;;;;;;;;;;10.73;58.71;99407.88;5034912;28;19917;-75
2022/12/02 09:51:03;;;;;;;;;;;;;;;10.72;58.71;99401.84;5034616;28;19959;-75
2022/12/02 09:53:31;;;;;;;;;;;;;;;10.72;58.78;99408.81;5034584;28;19928;-75
2022/12/02 09:55:56;;;;;;;;;;;;;;;10.71;59.03;99399.31;5018322;28;19932;-75
2022/12/02 09:58:22;;;;;;;;;;;;;;;10.67;58.81;99404.75;5035111;28;19924;-77
2022/12/02 10:00:48;;;;;;;;;;;;;;;10.65;58.62;99408.38;5052441;28;19978;-76
2022/12/02 10:03:14;;;;;;;;;;;;;;;10.66;59.04;99402.22;5020411;28;19921;-74
2022/12/02 10:05:40;;;;;;;;;;;;;;;10.64;58.94;99404.94;5038937;28;19924;-74
2022/12/02 10:08:06;;;;;;;;;;;;;;;10.65;58.59;99396.16;5056359;28;20391;-75
2022/12/02 10:10:36;;;;;;;;;;;;;;;10.63;58.76;99398.03;5038609;28;20359;-75
2022/12/02 10:13:02;;;;;;;;;;;;;;;10.62;58.69;99401.56;5022403;28;19940;-76
2022/12/02 10:15:27;;;;;;;;;;;;;;;10.63;58.88;99395.44;5038631;28;19917;-77
2022/12/02 10:17:53;;;;;;;;;;;;;;;10.65;58.78;99390.94;5038882;28;19917;-76
2022/12/02 10:20:22;;;;;;;;;;;;;;;10.68;58.80;99393.34;5038373;28;19921;-75
2022/12/02 10:23:06;;;;;;;;;;;;;;;10.74;58.60;99386.06;5022100;28;20027;-78
2022/12/02 10:25:31;;;;;;;;;;;;;;;10.83;58.64;99388.91;5056404;28;19921;-75
2022/12/02 10:27:57;;;;;;;;;;;;;;;10.89;58.57;99384.19;5038872;28;19916;-76
2022/12/02 10:30:24;;;;;;;;;;;;;;;10.99;58.35;99388.69;5038688;28;20394;-76
2022/12/02 10:33:05;;;;;;;;;;;;;;;11.17;58.35;99381.38;5056095;28;19916;-76
2022/12/02 10:35:42;;;;;;;;;;;;;;;11.38;57.79;99381.66;5038026;28;19917;-75
2022/12/02 10:38:26;;;;;;;;;;;;;;;11.56;57.39;99381.34;5038132;28;19966;-75
2022/12/02 10:40:52;;;;;;;;;;;;;;;11.65;57.09;99372.81;5056083;28;19924;-78
2022/12/02 10:43:19;;;;;;;;;;;;;;;11.69;56.84;99382.13;5055915;28;19917;-75
2022/12/02 10:45:57;;;;;;;;;;;;;;;11.71;56.69;99385.47;5038635;28;20392;-77
2022/12/02 10:48:22;;;;;;;;;;;;;;;11.73;56.50;99385.38;5038170;28;19917;-78
2022/12/02 10:50:47;;;;;;;;;;;;;;;11.72;56.34;99381.94;5055983;28;19917;-75
2022/12/02 10:53:14;;;;;;;;;;;;;;;11.74;56.42;99382.66;5037957;28;19993;-75
2022/12/02 10:55:39;;;;;;;;;;;;;;;11.72;56.69;99374.09;5055764;28;19924;-77
2022/12/02 10:58:05;;;;;;;;;;;;;;;11.73;56.71;99375.75;5037617;28;19920;-76
2022/12/02 11:00:30;;;;;;;;;;;;;;;11.71;56.49;99382.84;5056444;28;20387;-78
2022/12/02 11:02:56;;;;;;;;;;;;;;;11.70;56.51;99378.59;5021204;28;19964;-77
2022/12/02 11:05:22;;;;;;;;;;;;;;;11.70;56.47;99377.75;5037951;28;19917;-75
2022/12/02 11:07:55;;;;;;;;;;;;;;;11.70;56.60;99375.13;5037709;28;19970;-78
2022/12/02 11:10:21;;;;;;;;;;;;;;;11.68;56.50;99375.22;5020592;28;19940;-78
2022/12/02 11:12:49;;;;;;;;;;;;;;;11.69;56.57;99374.28;5021474;28;20391;-77
2022/12/02 11:15:33;;;;;;;;;;;;;;;11.68;56.41;99370.00;5055156;28;20307;-76
2022/12/02 11:17:58;;;;;;;;;;;;;;;11.67;56.63;99363.13;5055188;28;19917;-76
2022/12/02 11:20:43;;;;;;;;;;;;;;;11.67;56.64;99367.50;5020838;28;19928;-77
2022/12/02 11:23:15;;;;;;;;;;;;;;;11.64;56.63;99376.41;5021639;28;19917;-76
2022/12/02 11:25:46;;;;;;;;;;;;;;;11.61;56.62;99373.16;5037204;28;20387;-75
2022/12/02 11:28:31;;;;;;;;;;;;;;;11.55;56.71;99377.06;5055152;28;20013;-75
2022/12/02 11:31:09;;;;;;;;;;;;;;;11.51;56.97;99378.19;5036945;28;20391;-75
2022/12/02 11:33:47;;;;;;;;;;;;;;;11.46;57.37;99377.69;5037695;28;19920;-76
2022/12/02 11:36:20;;;;;;;;;;;;;;;11.43;57.46;99380.50;5055228;28;19917;-74
2022/12/02 11:38:51;;;;;;;;;;;;;;;11.39;57.33;99383.34;5037921;28;19916;-74
2022/12/02 11:41:20;;;;;;;;;;;;;;;11.38;57.70;99384.28;5055103;28;20375;-78
2022/12/02 11:43:45;;;;;;;;;;;;;;;11.38;57.62;99381.66;5037438;28;19916;-76
2022/12/02 11:46:14;;;;;;;;;;;;;;;11.36;57.95;99374.88;5037472;28;19916;-75
2022/12/02 11:48:44;;;;;;;;;;;;;;;11.37;57.56;99380.00;5020585;28;20011;-75
2022/12/02 11:51:23;;;;;;;;;;;;;;;11.34;57.67;99385.44;5053897;28;19916;-76
2022/12/02 11:53:49;;;;;;;;;;;;;;;11.32;58.00;99382.09;5070236;28;19916;-76
2022/12/02 11:56:15;;;;;;;;;;;;;;;11.32;58.25;99382.09;5064990;28;19924;-75
2022/12/02 11:58:41;;;;;;;;;;;;;;;11.33;58.03;99385.56;5053011;28;19960;-77
2022/12/02 12:01:14;;;;;;;;;;;;;;;11.37;61.64;99385.22;5038769;28;19921;-76
2022/12/02 12:03:40;;;;;;;;;;;;;;;11.43;60.45;99386.56;5032594;28;20368;-77
2022/12/02 12:06:12;;;;;;;;;;;;;;;11.48;59.54;99389.72;5020019;28;19931;-79
2022/12/02 12:08:38;;;;;;;;;;;;;;;11.50;60.88;99381.78;5036478;28;20379;-77
2022/12/02 12:11:17;;;;;;;;;;;;;;;11.55;59.71;99384.91;5036386;28;19971;-79
2022/12/02 12:14:17;;;;;;;;;;;;;;;11.61;59.43;99389.69;5019680;28;20383;-76
2022/12/02 12:16:45;;;;;;;;;;;;;;;11.59;59.09;99378.50;4976306;28;19922;-76
2022/12/02 12:19:10;;;;;;;;;;;;;;;11.57;59.03;99394.31;4976050;28;20226;-76
2022/12/02 12:21:40;;;;;;;;;;;;;;;11.55;58.63;99397.97;4992649;28;20425;-75
2022/12/02 12:24:24;;;;;;;;;;;;;;;11.54;58.52;99391.91;4961267;28;19985;-77
2022/12/02 12:26:50;;;;;;;;;;;;;;;11.50;58.77;99395.66;4991407;28;20016;-77
2022/12/02 12:29:16;;;;;;;;;;;;;;;11.49;58.55;99401.00;4959997;28;20013;-78
2022/12/02 12:31:41;;;;;;;;;;;;;;;11.47;58.41;99397.66;4976169;28;19917;-76
2022/12/02 12:34:06;;;;;;;;;;;;;;;11.44;58.81;99401.31;4960082;28;19917;-78
2022/12/02 12:36:32;;;;;;;;;;;;;;;11.44;58.59;99403.13;4976067;28;19918;-74
2022/12/02 12:38:57;;;;;;;;;;;;;;;11.42;58.70;99408.44;4959931;28;20061;-76
2022/12/02 12:41:22;;;;;;;;;;;;;;;11.40;58.83;99403.31;4976361;28;19917;-80
2022/12/02 12:43:49;;;;;;;;;;;;;;;11.39;58.40;99406.88;4992704;28;20412;-78
2022/12/02 12:46:14;;;;;;;;;;;;;;;11.39;58.42;99406.03;4976297;28;19922;-75
2022/12/02 12:48:39;;;;;;;;;;;;;;;11.35;58.61;99410.66;4976407;28;19918;-73
2022/12/02 12:51:05;;;;;;;;;;;;;;;11.32;59.07;99410.88;4977069;28;20452;-74
2022/12/02 12:53:30;;;;;;;;;;;;;;;11.28;59.14;99419.00;5015920;28;19924;-75
2022/12/02 12:55:55;;;;;;;;;;;;;;;11.23;59.12;99408.88;5014478;28;19921;-73